Nearby METAR Reports

 

KMLP - Mullan Pass, Idaho, USA
Distance from station: NE 41mi, 66km
Updated: Mon, 24-Feb-2020 2:56pm PST
Light snow, Overcast
Light snow, Overcast
 Wind from varies
Wind: varies 7 mph , 11 km/h
Temperature: 25°F , -4°C
Wind Chill: 17°F , -8°C
Dew Point: 18°F , -8°C
Humidity: 74%
Barometer: 30.22 inHg , 1023.4 hPa
Summary: Light Snow
Clouds: Overcast
Visibility: 2 miles , 3 km
Cloud details: Mostly Cloudy 200 ft
Overcast 800 ft
2020/02/24 22:56 KMLP 242256Z AUTO VRB06KT 2SM -SN BKN002 OVC008 M04/M08 A3022 RMK AO2 VIS 3/4V4 P0000 T10441078 $
KPUW - Pullman/Moscow, Washington, USA
Distance from station: SW 42mi, 68km
Updated: Mon, 24-Feb-2020 2:53pm PST
Clear
Clear
 Wind from W
Wind: W 15 mph , 24 km/h, Gust: 24 mph , 39 km/h
Temperature: 39°F , 4°C
Wind Chill: 31°F , -1°C
Dew Point: 21°F , -6°C
Humidity: 48%
Barometer: 30.40 inHg , 1029.5 hPa
Clouds: Clear
Visibility: 10 miles , 16 km
2020/02/24 22:53 KPUW 242253Z AUTO 26013G21KT 10SM CLR 04/M06 A3040 RMK AO2 SLP317 T00441056
 
KCOE - Coeur D'alene, Idaho, USA
Distance from station: NNW 49mi, 79km
Updated: Mon, 24-Feb-2020 2:56pm PST
Overcast
Overcast
 Wind from SSE
Wind: SSE 10 mph , 17 km/h
Temperature: 39°F , 4°C
Wind Chill: 32°F , 0°C
Dew Point: 28°F , -2°C
Humidity: 65%
Barometer: 30.36 inHg , 1028.1 hPa
Clouds: Overcast
Visibility: 10 miles , 16 km
Cloud details: Mostly Cloudy 4500 ft
Mostly Cloudy 8500 ft
Overcast 10000 ft
2020/02/24 22:56 KCOE 242256Z AUTO 16009KT 10SM BKN045 BKN085 OVC100 04/M02 A3036 RMK AO2 SLP319 T00391022
KSFF - Spokane/Felts, Washington, USA
Distance from station: NW 59mi, 94km
Updated: Mon, 24-Feb-2020 2:53pm PST
Overcast
Overcast
 Wind from E
Wind: E 5 mph , 7 km/h
Temperature: 45°F , 7°C
Wind Chill: 42°F , 6°C
Dew Point: 28°F , -2°C
Humidity: 53%
Barometer: 30.36 inHg , 1028.1 hPa
Clouds: Overcast
Visibility: 10 miles , 16 km
Cloud details: Partly Cloudy 6000 ft
Overcast 8000 ft
2020/02/24 22:53 KSFF 242253Z 08004KT 10SM SCT060 OVC080 07/M02 A3036 RMK AO2 SLP292 T00721017
 
KLWS - Lewiston, Idaho, USA
Distance from station: SSW 59mi, 96km
Updated: Mon, 24-Feb-2020 2:56pm PST
Mostly Cloudy
Mostly Cloudy
 Wind from WNW
Wind: WNW 12 mph , 19 km/h
Temperature: 46°F , 8°C
Wind Chill: 40°F , 4°C
Dew Point: 21°F , -6°C
Humidity: 37%
Barometer: 30.43 inHg , 1030.5 hPa
Clouds: Mostly Cloudy
Visibility: 10 miles , 16 km
Cloud details: Mostly Cloudy 6500 ft
2020/02/24 22:56 KLWS 242256Z 29010KT 10SM BKN065 08/M06 A3043 RMK AO2 SLP312 T00781061
KGEG - Spokane/Metro, Washington, USA
Distance from station: WNW 64mi, 103km
Updated: Mon, 24-Feb-2020 2:53pm PST
Mostly Cloudy
Mostly Cloudy
 Wind from WSW
Wind: WSW 14 mph , 22 km/h
Temperature: 43°F , 6°C
Wind Chill: 36°F , 2°C
Dew Point: 19°F , -7°C
Humidity: 39%
Barometer: 30.35 inHg , 1027.8 hPa
Clouds: Mostly Cloudy
Visibility: 10 miles , 16 km
Cloud details: Partly Cloudy 5000 ft
Partly Cloudy 9000 ft
Mostly Cloudy 24000 ft
2020/02/24 22:53 KGEG 242253Z 25012KT 10SM SCT050 SCT090 BKN240 06/M07 A3035 RMK AO2 SLP293 SHSN DSNT N AND E T00611067
 
KSKA - Fairchild Afb, Washington, USA
Distance from station: WNW 68mi, 110km
Updated: Mon, 24-Feb-2020 2:58pm PST
Mostly Cloudy
Mostly Cloudy
 Wind from WSW
Wind: WSW 15 mph , 24 km/h
Temperature: 43°F , 6°C
Wind Chill: 36°F , 2°C
Dew Point: 19°F , -7°C
Humidity: 39%
Barometer: 30.34 inHg , 1027.4 hPa
Clouds: Mostly Cloudy
Visibility: 10 miles , 16 km
Cloud details: Mostly Cloudy 8500 ft
2020/02/24 22:58 KSKA 242258Z 25013KT 10SM BKN085 06/M07 A3034 RMK SLP297 T00581071 $